sensor_id;sensor_type;location;lat;lon;timestamp;pressure;altitude;pressure_sealevel;temperature;humidity
66681;BME280;53575;51.366;12.350;2023-06-26T00:00:09;100302.34;;;19.78;88.54
66681;BME280;53575;51.366;12.350;2023-06-26T00:02:34;100300.81;;;19.72;90.44
66681;BME280;53575;51.366;12.350;2023-06-26T00:05:00;100299.09;;;19.71;91.86
66681;BME280;53575;51.366;12.350;2023-06-26T00:07:28;100295.91;;;19.63;90.63
66681;BME280;53575;51.366;12.350;2023-06-26T00:09:54;100296.94;;;19.59;90.27
66681;BME280;53575;51.366;12.350;2023-06-26T00:12:19;100289.94;;;19.58;90.40
66681;BME280;53575;51.366;12.350;2023-06-26T00:14:44;100287.28;;;19.58;90.86
66681;BME280;53575;51.366;12.350;2023-06-26T00:17:11;100292.84;;;19.52;91.52
66681;BME280;53575;51.366;12.350;2023-06-26T00:19:36;100288.47;;;19.51;93.04
66681;BME280;53575;51.366;12.350;2023-06-26T00:22:02;100289.34;;;19.52;93.31
66681;BME280;53575;51.366;12.350;2023-06-26T00:24:27;100288.34;;;19.54;92.64
66681;BME280;53575;51.366;12.350;2023-06-26T00:26:53;100285.63;;;19.56;92.24
66681;BME280;53575;51.366;12.350;2023-06-26T00:29:18;100289.22;;;19.55;92.85
66681;BME280;53575;51.366;12.350;2023-06-26T00:31:44;100284.03;;;19.52;93.50
66681;BME280;53575;51.366;12.350;2023-06-26T00:34:09;100288.59;;;19.48;93.30
66681;BME280;53575;51.366;12.350;2023-06-26T00:36:35;100288.28;;;19.35;95.96
66681;BME280;53575;51.366;12.350;2023-06-26T00:39:00;100282.28;;;19.30;95.18
66681;BME280;53575;51.366;12.350;2023-06-26T00:41:25;100286.63;;;19.33;94.43
66681;BME280;53575;51.366;12.350;2023-06-26T00:43:51;100287.75;;;19.27;94.87
66681;BME280;53575;51.366;12.350;2023-06-26T00:46:16;100283.75;;;19.37;95.95
66681;BME280;53575;51.366;12.350;2023-06-26T00:48:43;100275.94;;;19.34;95.14
66681;BME280;53575;51.366;12.350;2023-06-26T00:51:09;100278.06;;;19.26;94.99
66681;BME280;53575;51.366;12.350;2023-06-26T00:53:35;100267.88;;;19.17;95.34
66681;BME280;53575;51.366;12.350;2023-06-26T00:56:01;100279.41;;;19.16;93.96
66681;BME280;53575;51.366;12.350;2023-06-26T00:58:27;100271.78;;;19.08;93.58
66681;BME280;53575;51.366;12.350;2023-06-26T01:00:53;100269.28;;;19.04;93.17
66681;BME280;53575;51.366;12.350;2023-06-26T01:03:19;100269.13;;;19.08;92.72
66681;BME280;53575;51.366;12.350;2023-06-26T01:05:46;100272.97;;;19.21;91.91
66681;BME280;53575;51.366;12.350;2023-06-26T01:08:15;100266.94;;;19.18;91.68
66681;BME280;53575;51.366;12.350;2023-06-26T01:10:41;100276.13;;;19.09;91.47
66681;BME280;53575;51.366;12.350;2023-06-26T01:13:08;100265.00;;;19.01;91.68
66681;BME280;53575;51.366;12.350;2023-06-26T01:15:33;100264.25;;;18.97;92.08
66681;BME280;53575;51.366;12.350;2023-06-26T01:17:59;100266.72;;;19.02;92.23
66681;BME280;53575;51.366;12.350;2023-06-26T01:20:27;100257.97;;;19.00;91.92
66681;BME280;53575;51.366;12.350;2023-06-26T01:25:38;100263.44;;;18.95;91.78
66681;BME280;53575;51.366;12.350;2023-06-26T01:28:07;100259.28;;;18.90;91.71
66681;BME280;53575;51.366;12.350;2023-06-26T01:30:39;100258.44;;;18.89;91.93
66681;BME280;53575;51.366;12.350;2023-06-26T01:33:05;100251.34;;;18.90;92.21
66681;BME280;53575;51.366;12.350;2023-06-26T01:35:31;100247.84;;;18.89;94.35
66681;BME280;53575;51.366;12.350;2023-06-26T01:38:16;100244.50;;;18.84;91.95
66681;BME280;53575;51.366;12.350;2023-06-26T01:40:41;100249.66;;;18.87;92.87
66681;BME280;53575;51.366;12.350;2023-06-26T01:43:15;100246.47;;;18.79;91.56
66681;BME280;53575;51.366;12.350;2023-06-26T01:45:42;100243.19;;;18.74;91.91
66681;BME280;53575;51.366;12.350;2023-06-26T01:48:11;100240.53;;;18.74;92.30
66681;BME280;53575;51.366;12.350;2023-06-26T01:50:38;100241.50;;;18.71;92.72
66681;BME280;53575;51.366;12.350;2023-06-26T01:53:12;100241.91;;;18.61;92.35
66681;BME280;53575;51.366;12.350;2023-06-26T01:55:46;100235.69;;;18.62;92.58
66681;BME280;53575;51.366;12.350;2023-06-26T01:58:13;100235.34;;;18.71;91.89
66681;BME280;53575;51.366;12.350;2023-06-26T02:00:42;100236.56;;;18.62;92.11
66681;BME280;53575;51.366;12.350;2023-06-26T02:03:07;100230.16;;;18.68;92.33
66681;BME280;53575;51.366;12.350;2023-06-26T02:05:33;100233.84;;;18.64;92.44
66681;BME280;53575;51.366;12.350;2023-06-26T02:07:58;100234.63;;;18.66;91.74
66681;BME280;53575;51.366;12.350;2023-06-26T02:10:26;100235.63;;;18.63;92.44
66681;BME280;53575;51.366;12.350;2023-06-26T02:12:52;100232.25;;;18.60;93.04
66681;BME280;53575;51.366;12.350;2023-06-26T02:15:17;100224.69;;;18.72;93.98
66681;BME280;53575;51.366;12.350;2023-06-26T02:17:42;100224.97;;;18.65;92.68
66681;BME280;53575;51.366;12.350;2023-06-26T02:20:09;100230.47;;;18.60;92.30
66681;BME280;53575;51.366;12.350;2023-06-26T02:22:36;100221.91;;;18.54;92.49
66681;BME280;53575;51.366;12.350;2023-06-26T02:25:01;100217.53;;;18.52;92.82
66681;BME280;53575;51.366;12.350;2023-06-26T02:27:27;100220.25;;;18.51;92.64
66681;BME280;53575;51.366;12.350;2023-06-26T02:29:52;100220.41;;;18.46;93.17
66681;BME280;53575;51.366;12.350;2023-06-26T02:32:18;100218.03;;;18.40;93.39
66681;BME280;53575;51.366;12.350;2023-06-26T02:34:43;100225.91;;;18.42;93.69
66681;BME280;53575;51.366;12.350;2023-06-26T02:37:08;100222.50;;;18.38;93.59
66681;BME280;53575;51.366;12.350;2023-06-26T02:39:35;100223.44;;;18.37;93.54
66681;BME280;53575;51.366;12.350;2023-06-26T02:42:01;100229.56;;;18.39;93.96
66681;BME280;53575;51.366;12.350;2023-06-26T02:44:26;100222.59;;;18.37;93.73
66681;BME280;53575;51.366;12.350;2023-06-26T02:46:52;100222.47;;;18.40;94.65
66681;BME280;53575;51.366;12.350;2023-06-26T02:49:17;100218.03;;;18.40;93.99
66681;BME280;53575;51.366;12.350;2023-06-26T02:51:43;100219.13;;;18.35;94.27
66681;BME280;53575;51.366;12.350;2023-06-26T02:54:08;100221.53;;;18.41;94.56
66681;BME280;53575;51.366;12.350;2023-06-26T02:56:34;100215.69;;;18.55;93.62
66681;BME280;53575;51.366;12.350;2023-06-26T02:58:59;100215.38;;;18.40;94.46
66681;BME280;53575;51.366;12.350;2023-06-26T03:01:25;100216.16;;;18.42;95.50
66681;BME280;53575;51.366;12.350;2023-06-26T03:03:51;100213.84;;;18.35;95.84
66681;BME280;53575;51.366;12.350;2023-06-26T03:06:16;100213.28;;;18.48;96.70
66681;BME280;53575;51.366;12.350;2023-06-26T03:08:42;100208.53;;;18.35;96.70
66681;BME280;53575;51.366;12.350;2023-06-26T03:11:08;100207.06;;;18.27;96.83
66681;BME280;53575;51.366;12.350;2023-06-26T03:13:34;100209.88;;;18.23;98.13
66681;BME280;53575;51.366;12.350;2023-06-26T03:16:00;100214.31;;;18.22;97.98
66681;BME280;53575;51.366;12.350;2023-06-26T03:18:26;100204.59;;;18.23;98.92
66681;BME280;53575;51.366;12.350;2023-06-26T03:20:52;100209.28;;;18.16;99.28
66681;BME280;53575;51.366;12.350;2023-06-26T03:23:19;100204.91;;;18.15;99.55
66681;BME280;53575;51.366;12.350;2023-06-26T03:25:45;100212.84;;;18.15;98.87
66681;BME280;53575;51.366;12.350;2023-06-26T03:28:11;100205.66;;;18.19;99.16
66681;BME280;53575;51.366;12.350;2023-06-26T03:30:36;100200.31;;;18.20;98.60
66681;BME280;53575;51.366;12.350;2023-06-26T03:33:01;100201.91;;;18.24;98.10
66681;BME280;53575;51.366;12.350;2023-06-26T03:35:27;100201.09;;;18.22;98.57
66681;BME280;53575;51.366;12.350;2023-06-26T03:37:53;100198.56;;;18.19;98.45
66681;BME280;53575;51.366;12.350;2023-06-26T03:40:18;100191.63;;;18.17;98.12
66681;BME280;53575;51.366;12.350;2023-06-26T03:42:43;100193.34;;;18.18;98.56
66681;BME280;53575;51.366;12.350;2023-06-26T03:45:09;100191.03;;;18.32;97.96
66681;BME280;53575;51.366;12.350;2023-06-26T03:47:34;100187.75;;;18.25;98.35
66681;BME280;53575;51.366;12.350;2023-06-26T03:50:00;100182.59;;;18.22;98.22
66681;BME280;53575;51.366;12.350;2023-06-26T03:52:25;100187.56;;;18.30;98.59
66681;BME280;53575;51.366;12.350;2023-06-26T03:54:50;100186.78;;;18.28;98.18
66681;BME280;53575;51.366;12.350;2023-06-26T03:57:16;100186.09;;;18.23;98.24
66681;BME280;53575;51.366;12.350;2023-06-26T03:59:41;100178.03;;;18.26;98.13
66681;BME280;53575;51.366;12.350;2023-06-26T04:02:07;100178.84;;;18.28;98.56
66681;BME280;53575;51.366;12.350;2023-06-26T04:04:32;100177.09;;;18.27;97.94
66681;BME280;53575;51.366;12.350;2023-06-26T04:06:58;100177.00;;;18.30;97.65
66681;BME280;53575;51.366;12.350;2023-06-26T04:09:25;100177.84;;;18.31;97.28
66681;BME280;53575;51.366;12.350;2023-06-26T04:12:09;100175.16;;;18.32;97.55
66681;BME280;53575;51.366;12.350;2023-06-26T04:14:34;100176.78;;;18.35;96.95
66681;BME280;53575;51.366;12.350;2023-06-26T04:17:00;100172.13;;;18.41;96.64
66681;BME280;53575;51.366;12.350;2023-06-26T04:19:28;100178.16;;;18.45;96.13
66681;BME280;53575;51.366;12.350;2023-06-26T04:21:54;100170.03;;;18.49;95.73
66681;BME280;53575;51.366;12.350;2023-06-26T04:24:19;100171.63;;;18.54;95.47
66681;BME280;53575;51.366;12.350;2023-06-26T04:26:45;100173.22;;;18.58;94.99
66681;BME280;53575;51.366;12.350;2023-06-26T04:29:10;100168.59;;;18.63;94.62
66681;BME280;53575;51.366;12.350;2023-06-26T04:31:36;100172.84;;;18.67;94.36
66681;BME280;53575;51.366;12.350;2023-06-26T04:34:01;100166.53;;;18.71;94.32
66681;BME280;53575;51.366;12.350;2023-06-26T04:36:27;100171.53;;;18.77;94.36
66681;BME280;53575;51.366;12.350;2023-06-26T04:38:54;100171.44;;;18.80;94.29
66681;BME280;53575;51.366;12.350;2023-06-26T04:41:19;100172.22;;;18.82;94.22
66681;BME280;53575;51.366;12.350;2023-06-26T04:43:45;100172.97;;;18.86;94.19
66681;BME280;53575;51.366;12.350;2023-06-26T04:46:10;100165.69;;;18.91;94.05
66681;BME280;53575;51.366;12.350;2023-06-26T04:48:36;100167.13;;;18.98;94.11
66681;BME280;53575;51.366;12.350;2023-06-26T04:51:01;100168.47;;;19.08;92.89
66681;BME280;53575;51.366;12.350;2023-06-26T04:53:27;100165.66;;;19.11;92.76
66681;BME280;53575;51.366;12.350;2023-06-26T04:55:52;100160.84;;;19.21;92.46
66681;BME280;53575;51.366;12.350;2023-06-26T04:58:18;100159.63;;;19.28;91.93
66681;BME280;53575;51.366;12.350;2023-06-26T05:00:44;100161.22;;;19.32;91.32
66681;BME280;53575;51.366;12.350;2023-06-26T05:03:14;100157.38;;;19.39;90.90
66681;BME280;53575;51.366;12.350;2023-06-26T05:05:40;100147.56;;;19.41;90.54
66681;BME280;53575;51.366;12.350;2023-06-26T05:08:23;100150.72;;;19.49;90.07
66681;BME280;53575;51.366;12.350;2023-06-26T05:10:49;100143.78;;;19.47;89.90
66681;BME280;53575;51.366;12.350;2023-06-26T05:13:15;100139.91;;;19.54;89.60
66681;BME280;53575;51.366;12.350;2023-06-26T05:15:43;100136.00;;;19.63;89.06
66681;BME280;53575;51.366;12.350;2023-06-26T05:18:09;100132.88;;;19.74;87.91
66681;BME280;53575;51.366;12.350;2023-06-26T05:20:35;100135.94;;;19.83;86.63
66681;BME280;53575;51.366;12.350;2023-06-26T05:23:04;100128.81;;;19.84;86.36
66681;BME280;53575;51.366;12.350;2023-06-26T05:25:30;100128.47;;;19.91;85.92
66681;BME280;53575;51.366;12.350;2023-06-26T05:27:57;100134.13;;;20.03;85.29
66681;BME280;53575;51.366;12.350;2023-06-26T05:30:24;100126.81;;;20.08;85.02
66681;BME280;53575;51.366;12.350;2023-06-26T05:32:51;100132.75;;;20.13;84.00
66681;BME280;53575;51.366;12.350;2023-06-26T05:35:18;100126.13;;;20.21;83.43
66681;BME280;53575;51.366;12.350;2023-06-26T05:37:45;100120.69;;;20.25;83.14
66681;BME280;53575;51.366;12.350;2023-06-26T05:40:13;100129.19;;;20.31;82.38
66681;BME280;53575;51.366;12.350;2023-06-26T05:42:39;100129.91;;;20.35;82.13
66681;BME280;53575;51.366;12.350;2023-06-26T05:45:04;100120.72;;;20.42;81.87
66681;BME280;53575;51.366;12.350;2023-06-26T05:47:30;100124.22;;;20.42;82.23
66681;BME280;53575;51.366;12.350;2023-06-26T05:49:55;100120.50;;;20.64;80.39
66681;BME280;53575;51.366;12.350;2023-06-26T05:52:21;100123.94;;;20.66;80.63
66681;BME280;53575;51.366;12.350;2023-06-26T05:54:47;100124.03;;;20.64;80.65
66681;BME280;53575;51.366;12.350;2023-06-26T05:57:13;100123.47;;;20.75;79.80
66681;BME280;53575;51.366;12.350;2023-06-26T05:59:39;100121.59;;;20.77;79.31
66681;BME280;53575;51.366;12.350;2023-06-26T06:02:06;100122.94;;;20.86;79.26
66681;BME280;53575;51.366;12.350;2023-06-26T06:04:31;100126.22;;;20.91;79.22
66681;BME280;53575;51.366;12.350;2023-06-26T06:06:56;100134.94;;;20.93;79.61
66681;BME280;53575;51.366;12.350;2023-06-26T06:09:22;100124.19;;;20.96;79.35
66681;BME280;53575;51.366;12.350;2023-06-26T06:11:47;100123.84;;;21.02;79.22
66681;BME280;53575;51.366;12.350;2023-06-26T06:14:13;100118.13;;;21.10;79.04
66681;BME280;53575;51.366;12.350;2023-06-26T06:16:38;100121.06;;;21.21;77.72
66681;BME280;53575;51.366;12.350;2023-06-26T06:19:04;100118.94;;;21.28;78.18
66681;BME280;53575;51.366;12.350;2023-06-26T06:21:32;100114.97;;;21.36;77.20
66681;BME280;53575;51.366;12.350;2023-06-26T06:23:57;100122.03;;;21.37;77.06
66681;BME280;53575;51.366;12.350;2023-06-26T06:26:23;100118.00;;;21.46;77.17
66681;BME280;53575;51.366;12.350;2023-06-26T06:28:48;100114.75;;;21.57;76.36
66681;BME280;53575;51.366;12.350;2023-06-26T06:31:14;100122.84;;;21.71;75.17
66681;BME280;53575;51.366;12.350;2023-06-26T06:33:39;100121.63;;;21.77;74.83
66681;BME280;53575;51.366;12.350;2023-06-26T06:36:05;100114.34;;;21.80;74.30
66681;BME280;53575;51.366;12.350;2023-06-26T06:38:30;100109.28;;;21.92;74.32
66681;BME280;53575;51.366;12.350;2023-06-26T06:40:56;100104.97;;;22.05;73.59
66681;BME280;53575;51.366;12.350;2023-06-26T06:43:22;100115.59;;;22.05;73.34
66681;BME280;53575;51.366;12.350;2023-06-26T06:45:47;100111.50;;;21.99;74.49
66681;BME280;53575;51.366;12.350;2023-06-26T06:48:12;100101.56;;;22.03;74.74
66681;BME280;53575;51.366;12.350;2023-06-26T06:50:38;100105.34;;;22.14;74.38
66681;BME280;53575;51.366;12.350;2023-06-26T06:53:03;100099.56;;;22.22;73.26
66681;BME280;53575;51.366;12.350;2023-06-26T06:55:29;100101.53;;;22.34;71.08
66681;BME280;53575;51.366;12.350;2023-06-26T06:57:54;100094.63;;;22.46;70.15
66681;BME280;53575;51.366;12.350;2023-06-26T07:00:20;100093.09;;;22.42;71.34
66681;BME280;53575;51.366;12.350;2023-06-26T07:02:45;100092.97;;;22.59;70.46
66681;BME280;53575;51.366;12.350;2023-06-26T07:05:12;100101.41;;;22.66;69.97
66681;BME280;53575;51.366;12.350;2023-06-26T07:07:38;100094.22;;;22.68;69.68
66681;BME280;53575;51.366;12.350;2023-06-26T07:10:09;100083.19;;;22.74;69.90
66681;BME280;53575;51.366;12.350;2023-06-26T07:12:36;100082.53;;;22.85;69.62
66681;BME280;53575;51.366;12.350;2023-06-26T07:15:03;100077.97;;;22.87;69.32
66681;BME280;53575;51.366;12.350;2023-06-26T07:17:30;100078.50;;;22.94;69.35
66681;BME280;53575;51.366;12.350;2023-06-26T07:19:56;100076.50;;;22.97;70.16
66681;BME280;53575;51.366;12.350;2023-06-26T07:22:21;100083.63;;;23.11;69.03
66681;BME280;53575;51.366;12.350;2023-06-26T07:24:47;100082.59;;;23.14;67.95
66681;BME280;53575;51.366;12.350;2023-06-26T07:27:16;100082.31;;;23.18;68.47
66681;BME280;53575;51.366;12.350;2023-06-26T07:29:43;100083.94;;;23.21;68.36
66681;BME280;53575;51.366;12.350;2023-06-26T07:32:09;100081.47;;;23.32;68.36
66681;BME280;53575;51.366;12.350;2023-06-26T07:34:34;100079.22;;;23.53;66.96
66681;BME280;53575;51.366;12.350;2023-06-26T07:40:22;100077.53;;;23.66;66.98
66681;BME280;53575;51.366;12.350;2023-06-26T07:42:47;100073.59;;;23.72;66.41
66681;BME280;53575;51.366;12.350;2023-06-26T07:45:13;100076.28;;;23.72;67.14
66681;BME280;53575;51.366;12.350;2023-06-26T07:47:39;100071.38;;;23.93;66.45
66681;BME280;53575;51.366;12.350;2023-06-26T07:50:05;100069.19;;;24.12;64.47
66681;BME280;53575;51.366;12.350;2023-06-26T07:52:31;100071.34;;;24.20;64.93
66681;BME280;53575;51.366;12.350;2023-06-26T07:54:57;100066.09;;;24.18;64.79
66681;BME280;53575;51.366;12.350;2023-06-26T07:57:22;100068.03;;;24.16;65.42
66681;BME280;53575;51.366;12.350;2023-06-26T07:59:48;100074.38;;;24.28;65.59
66681;BME280;53575;51.366;12.350;2023-06-26T08:02:13;100068.41;;;24.37;64.56
66681;BME280;53575;51.366;12.350;2023-06-26T08:04:39;100053.06;;;24.41;63.68
66681;BME280;53575;51.366;12.350;2023-06-26T08:07:05;100058.00;;;24.47;65.67
66681;BME280;53575;51.366;12.350;2023-06-26T08:09:31;100048.59;;;24.67;63.67
66681;BME280;53575;51.366;12.350;2023-06-26T08:11:57;100048.50;;;24.68;64.13
66681;BME280;53575;51.366;12.350;2023-06-26T08:14:23;100050.75;;;24.74;64.45
66681;BME280;53575;51.366;12.350;2023-06-26T08:16:49;100049.16;;;24.85;63.69
66681;BME280;53575;51.366;12.350;2023-06-26T08:19:16;100056.09;;;25.00;61.61
66681;BME280;53575;51.366;12.350;2023-06-26T08:21:45;100051.84;;;25.10;59.83
66681;BME280;53575;51.366;12.350;2023-06-26T08:24:11;100044.75;;;25.09;61.01
66681;BME280;53575;51.366;12.350;2023-06-26T08:26:38;100047.34;;;25.23;61.28
66681;BME280;53575;51.366;12.350;2023-06-26T08:29:05;100053.13;;;25.30;61.28
66681;BME280;53575;51.366;12.350;2023-06-26T08:31:34;100044.06;;;25.44;59.17
66681;BME280;53575;51.366;12.350;2023-06-26T08:34:03;100041.75;;;25.39;59.87
66681;BME280;53575;51.366;12.350;2023-06-26T08:36:29;100043.94;;;25.58;59.69
66681;BME280;53575;51.366;12.350;2023-06-26T08:38:56;100048.03;;;25.75;58.33
66681;BME280;53575;51.366;12.350;2023-06-26T08:41:22;100037.34;;;25.88;58.17
66681;BME280;53575;51.366;12.350;2023-06-26T08:43:47;100040.09;;;25.86;58.56
66681;BME280;53575;51.366;12.350;2023-06-26T08:46:15;100039.88;;;25.89;58.90
66681;BME280;53575;51.366;12.350;2023-06-26T08:48:47;100044.09;;;26.05;56.88
66681;BME280;53575;51.366;12.350;2023-06-26T08:51:16;100037.13;;;26.26;56.13
66681;BME280;53575;51.366;12.350;2023-06-26T08:56:16;100038.84;;;26.27;54.67
66681;BME280;53575;51.366;12.350;2023-06-26T08:58:43;100034.94;;;26.31;56.00
66681;BME280;53575;51.366;12.350;2023-06-26T09:01:09;100035.13;;;26.41;55.66
66681;BME280;53575;51.366;12.350;2023-06-26T09:03:36;100032.50;;;26.52;55.61
66681;BME280;53575;51.366;12.350;2023-06-26T09:06:01;100023.00;;;26.59;55.46
66681;BME280;53575;51.366;12.350;2023-06-26T09:08:27;100028.34;;;26.59;54.90
66681;BME280;53575;51.366;12.350;2023-06-26T09:10:52;100029.59;;;26.66;55.65
66681;BME280;53575;51.366;12.350;2023-06-26T09:13:18;100024.25;;;26.89;54.83
66681;BME280;53575;51.366;12.350;2023-06-26T09:15:45;100034.00;;;27.01;52.37
66681;BME280;53575;51.366;12.350;2023-06-26T09:18:11;100026.00;;;27.12;50.44
66681;BME280;53575;51.366;12.350;2023-06-26T09:20:36;100023.53;;;27.20;48.96
66681;BME280;53575;51.366;12.350;2023-06-26T09:23:03;100016.47;;;27.31;47.88
66681;BME280;53575;51.366;12.350;2023-06-26T09:25:28;100025.25;;;27.44;48.05
66681;BME280;53575;51.366;12.350;2023-06-26T09:27:54;100019.50;;;27.60;50.06
66681;BME280;53575;51.366;12.350;2023-06-26T09:30:20;100022.63;;;27.65;49.61
66681;BME280;53575;51.366;12.350;2023-06-26T09:32:47;100022.78;;;27.63;49.61
66681;BME280;53575;51.366;12.350;2023-06-26T09:35:12;100019.72;;;27.68;49.45
66681;BME280;53575;51.366;12.350;2023-06-26T09:37:38;100015.19;;;27.80;49.30
66681;BME280;53575;51.366;12.350;2023-06-26T09:40:04;100015.00;;;27.92;48.66
66681;BME280;53575;51.366;12.350;2023-06-26T09:42:30;100012.69;;;27.99;47.49
66681;BME280;53575;51.366;12.350;2023-06-26T09:44:56;100009.00;;;28.00;47.11
66681;BME280;53575;51.366;12.350;2023-06-26T09:47:22;100005.03;;;28.15;46.51
66681;BME280;53575;51.366;12.350;2023-06-26T09:49:47;100005.16;;;28.14;46.00
66681;BME280;53575;51.366;12.350;2023-06-26T09:52:17;99998.88;;;28.25;46.21
66681;BME280;53575;51.366;12.350;2023-06-26T09:54:43;99998.59;;;28.39;46.52
66681;BME280;53575;51.366;12.350;2023-06-26T09:57:18;99998.78;;;28.47;45.88
66681;BME280;53575;51.366;12.350;2023-06-26T09:59:44;99999.25;;;28.52;44.58
66681;BME280;53575;51.366;12.350;2023-06-26T10:02:12;99992.94;;;28.63;44.08
66681;BME280;53575;51.366;12.350;2023-06-26T10:04:38;99984.88;;;28.63;43.96
66681;BME280;53575;51.366;12.350;2023-06-26T10:07:11;99986.34;;;28.77;43.25
66681;BME280;53575;51.366;12.350;2023-06-26T10:09:41;99995.91;;;28.90;42.62
66681;BME280;53575;51.366;12.350;2023-06-26T10:12:14;99982.53;;;29.00;42.26
66681;BME280;53575;51.366;12.350;2023-06-26T10:14:43;99989.19;;;29.06;40.99
66681;BME280;53575;51.366;12.350;2023-06-26T10:17:16;99990.47;;;29.11;40.81
66681;BME280;53575;51.366;12.350;2023-06-26T10:19:44;99978.50;;;29.16;41.82
66681;BME280;53575;51.366;12.350;2023-06-26T10:22:12;99980.88;;;29.19;41.13
66681;BME280;53575;51.366;12.350;2023-06-26T10:24:40;99980.75;;;29.20;40.72
66681;BME280;53575;51.366;12.350;2023-06-26T10:27:20;99982.50;;;29.31;40.09
66681;BME280;53575;51.366;12.350;2023-06-26T10:29:49;99966.22;;;29.42;39.83
66681;BME280;53575;51.366;12.350;2023-06-26T10:32:17;99967.81;;;29.54;38.46
66681;BME280;53575;51.366;12.350;2023-06-26T10:34:43;99964.09;;;29.55;38.74
66681;BME280;53575;51.366;12.350;2023-06-26T10:37:09;99958.13;;;29.32;38.95
66681;BME280;53575;51.366;12.350;2023-06-26T10:39:52;99960.81;;;29.32;39.22
66681;BME280;53575;51.366;12.350;2023-06-26T10:42:34;99952.75;;;29.52;38.96
66681;BME280;53575;51.366;12.350;2023-06-26T10:45:09;99951.41;;;29.77;38.62
66681;BME280;53575;51.366;12.350;2023-06-26T10:47:36;99950.97;;;29.91;39.29
66681;BME280;53575;51.366;12.350;2023-06-26T10:50:25;99953.97;;;30.17;38.23
66681;BME280;53575;51.366;12.350;2023-06-26T10:55:56;99948.97;;;30.42;37.94
66681;BME280;53575;51.366;12.350;2023-06-26T11:03:40;99936.16;;;30.53;38.24
66681;BME280;53575;51.366;12.350;2023-06-26T11:06:13;99933.66;;;30.70;38.48
66681;BME280;53575;51.366;12.350;2023-06-26T11:11:19;99936.31;;;30.89;36.61
66681;BME280;53575;51.366;12.350;2023-06-26T11:13:46;99933.81;;;30.78;37.17
66681;BME280;53575;51.366;12.350;2023-06-26T11:16:12;99931.13;;;30.68;37.18
66681;BME280;53575;51.366;12.350;2023-06-26T11:18:39;99912.00;;;30.52;36.85
66681;BME280;53575;51.366;12.350;2023-06-26T11:21:06;99916.50;;;30.24;37.99
66681;BME280;53575;51.366;12.350;2023-06-26T11:23:33;99920.19;;;30.23;38.31
66681;BME280;53575;51.366;12.350;2023-06-26T11:26:20;99909.47;;;30.50;38.76
66681;BME280;53575;51.366;12.350;2023-06-26T11:28:53;99913.78;;;30.71;36.56
66681;BME280;53575;51.366;12.350;2023-06-26T11:33:59;99916.94;;;31.03;35.40
66681;BME280;53575;51.366;12.350;2023-06-26T11:36:25;99897.56;;;31.36;35.06
66681;BME280;53575;51.366;12.350;2023-06-26T11:39:02;99903.81;;;31.54;34.19
66681;BME280;53575;51.366;12.350;2023-06-26T11:41:38;99902.84;;;31.27;35.78
66681;BME280;53575;51.366;12.350;2023-06-26T11:44:08;99893.63;;;31.30;35.39
66681;BME280;53575;51.366;12.350;2023-06-26T11:46:35;99888.97;;;31.22;36.21
66681;BME280;53575;51.366;12.350;2023-06-26T11:49:07;99890.50;;;31.25;35.59
66681;BME280;53575;51.366;12.350;2023-06-26T11:51:33;99895.97;;;31.15;36.21
66681;BME280;53575;51.366;12.350;2023-06-26T11:54:03;99894.84;;;30.90;35.66
66681;BME280;53575;51.366;12.350;2023-06-26T11:56:29;99895.06;;;30.69;36.02
66681;BME280;53575;51.366;12.350;2023-06-26T12:01:33;99887.38;;;31.02;35.53
66681;BME280;53575;51.366;12.350;2023-06-26T12:04:00;99893.63;;;30.75;36.59
66681;BME280;53575;51.366;12.350;2023-06-26T12:06:27;99900.44;;;30.79;35.56
66681;BME280;53575;51.366;12.350;2023-06-26T12:08:54;99888.88;;;31.14;35.96
66681;BME280;53575;51.366;12.350;2023-06-26T12:11:22;99889.16;;;31.39;35.58
66681;BME280;53575;51.366;12.350;2023-06-26T12:13:49;99884.63;;;31.57;35.18
66681;BME280;53575;51.366;12.350;2023-06-26T12:16:15;99883.81;;;31.83;34.00
66681;BME280;53575;51.366;12.350;2023-06-26T12:18:40;99882.88;;;32.10;33.71
66681;BME280;53575;51.366;12.350;2023-06-26T12:21:06;99894.28;;;32.21;33.63
66681;BME280;53575;51.366;12.350;2023-06-26T12:23:41;99884.28;;;32.22;33.23
66681;BME280;53575;51.366;12.350;2023-06-26T12:26:19;99875.50;;;32.46;32.87
66681;BME280;53575;51.366;12.350;2023-06-26T12:28:46;99883.09;;;32.76;32.53
66681;BME280;53575;51.366;12.350;2023-06-26T12:31:15;99866.78;;;33.03;32.08
66681;BME280;53575;51.366;12.350;2023-06-26T12:33:44;99866.66;;;33.12;32.19
66681;BME280;53575;51.366;12.350;2023-06-26T12:36:13;99869.22;;;33.38;32.34
66681;BME280;53575;51.366;12.350;2023-06-26T12:38:40;99862.53;;;33.51;32.38
66681;BME280;53575;51.366;12.350;2023-06-26T12:41:12;99857.75;;;33.61;31.89
66681;BME280;53575;51.366;12.350;2023-06-26T12:43:38;99859.81;;;33.51;30.75
66681;BME280;53575;51.366;12.350;2023-06-26T12:46:04;99853.69;;;33.65;31.20
66681;BME280;53575;51.366;12.350;2023-06-26T12:48:43;99847.28;;;33.66;30.46
66681;BME280;53575;51.366;12.350;2023-06-26T12:51:17;99849.31;;;33.56;30.65
66681;BME280;53575;51.366;12.350;2023-06-26T12:53:43;99834.53;;;33.91;30.48
66681;BME280;53575;51.366;12.350;2023-06-26T12:56:10;99844.00;;;34.19;29.62
66681;BME280;53575;51.366;12.350;2023-06-26T12:58:36;99834.13;;;34.27;29.71
66681;BME280;53575;51.366;12.350;2023-06-26T13:01:04;99835.78;;;34.83;29.09
66681;BME280;53575;51.366;12.350;2023-06-26T13:03:30;99826.25;;;35.50;28.03
66681;BME280;53575;51.366;12.350;2023-06-26T13:05:55;99833.47;;;35.95;27.03